Latest Weather Observations for Mandurah

IDW60801

Issued at 12:05 pm WST Sunday 31 August 2014 (issued every 30 minutes, with the page automatically refreshed every 10 minutes)

About weather observations | Map of weather stations | Latest weather observations for WA | Other Formats
Station Details ID: 009977 Name: MANDURAH Lat: -32.52 Lon: 115.71 Height: 3.0 m
Data from the previous 72 hours. | See also: Recent months at Mandurah
Date/Time
WST
Temp
°C
App
Temp
°C
Dew
Point
Rel
Hum
%
Delta-T
°C
Wind Press
QNH
hPa
Press
MSL
hPa
Rain
since 9 am
mm
Dir
 
Spd
km/h
Gust
km/h
Spd
kts
Gust
kts
31/12:00pm 16.3 13.3 6.2 51 4.9 SSE 11 17 6 9 1019.9 1019.9 0.0
31/11:30am 16.0 12.6 5.9 51 4.9 S 13 17 7 9 1020.0 1020.0 0.0
31/11:00am 15.3 12.9 6.8 57 4.1 SSE 9 19 5 10 1020.0 1020.0 0.0
31/10:30am 14.7 11.6 7.3 61 3.6 SSE 13 19 7 10 1020.5 1020.5 0.0
31/10:00am 14.6 11.6 7.9 64 3.3 SSE 13 17 7 9 1020.1 1020.1 0.0
31/09:30am 14.3 12.2 8.3 67 3.0 SE 9 15 5 8 1020.4 1020.4 0.0
31/09:00am 13.6 11.8 9.5 76 2.1 SE 9 13 5 7 1020.0 1020.0 0.4
31/08:30am 12.7 11.1 10.1 84 1.3 SSE 9 13 5 7 1019.8 1019.8 0.4
31/08:00am 12.0 10.6 10.9 93 0.6 SE 9 13 5 7 1019.5 1019.5 0.4
31/07:30am 12.3 10.9 12.1 99 0.1 SE 11 15 6 8 1019.0 1019.0 0.4
31/07:00am 12.1 11.4 12.1 100 0.0 SSE 7 9 4 5 1018.8 1018.8 0.4
31/06:30am 11.8 11.2 11.8 100 0.0 SE 6 9 3 5 1018.3 1018.3 0.4
31/06:00am 11.9 11.4 11.9 100 0.0 SSE 6 7 3 4 1018.2 1018.2 0.4
31/05:30am 11.7 11.0 11.5 99 0.1 SE 6 7 3 4 1017.8 1017.8 0.4
31/05:00am 11.8 11.2 11.6 99 0.1 SE 6 9 3 5 1017.9 1017.9 0.4
31/04:30am 11.9 11.1 11.7 99 0.1 ESE 7 11 4 6 1017.6 1017.6 0.4
31/04:00am 12.0 11.2 11.8 99 0.1 SE 7 13 4 7 1018.0 1018.0 0.4
31/03:30am 12.2 10.7 12.0 99 0.1 SE 11 17 6 9 1017.7 1017.7 0.4
31/03:00am 12.2 10.4 12.0 99 0.1 SSE 13 20 7 11 1017.5 1017.5 0.4
31/02:30am 12.3 11.9 12.3 100 0.0 SE 6 9 3 5 1017.5 1017.5 0.4
31/02:00am 12.2 11.7 12.2 100 0.0 E 6 7 3 4 1017.5 1017.5 0.4
31/01:30am 12.2 11.6 12.2 100 0.0 ESE 7 9 4 5 1017.5 1017.5 0.4
31/01:00am 12.5 12.0 12.5 100 0.0 ESE 7 9 4 5 1017.8 1017.8 0.4
31/12:30am 12.3 11.7 12.3 100 0.0 ESE 7 11 4 6 1017.5 1017.5 0.4
31/12:00am 12.7 12.4 12.7 100 0.0 ESE 6 7 3 4 1017.8 1017.8 0.4
 
Date/Time
WST
Temp
°C
App
Temp
°C
Dew
Point
Rel
Hum
%
Delta-T
°C
Wind Press
QNH
hPa
Press
MSL
hPa
Rain
since 9 am
mm
Dir
 
Spd
km/h
Gust
km/h
Spd
kts
Gust
kts
30/11:30pm 12.8 12.5 12.8 100 0.0 ESE 6 7 3 4 1017.9 1017.9 0.4
30/11:00pm 12.8 12.9 12.6 99 0.1 SE 4 6 2 3 1017.4 1017.4 0.4
30/10:30pm 13.0 12.5 12.8 99 0.1 SSE 7 11 4 6 1017.8 1017.8 0.4
30/10:00pm 13.5 13.7 12.9 96 0.3 SSE 4 7 2 4 1018.1 1018.1 0.4
30/09:30pm 13.9 13.4 11.9 88 1.1 SSE 6 9 3 5 1018.3 1018.3 0.4
30/09:00pm 14.0 13.7 11.5 85 1.3 E 4 6 2 3 1018.1 1018.1 0.4
30/08:30pm 14.7 14.3 11.1 79 1.9 SE 4 7 2 4 1017.9 1017.9 0.2
30/08:00pm 14.9 13.4 10.5 75 2.3 S 9 15 5 8 1017.7 1017.7 0.2
30/07:30pm 15.0 13.5 10.6 75 2.3 S 9 15 5 8 1017.9 1017.9 0.2
30/07:00pm 15.3 13.7 10.1 71 2.7 S 9 17 5 9 1017.7 1017.7 0.2
30/06:30pm 15.4 14.1 10.0 70 2.8 S 7 11 4 6 1017.4 1017.4 0.2
30/06:00pm 15.7 14.3 9.6 67 3.2 S 7 11 4 6 1016.7 1016.7 0.2
30/05:30pm 16.1 14.4 10.0 67 3.2 SSW 9 13 5 7 1016.7 1016.7 0.2
30/05:00pm 16.8 15.8 10.2 65 3.5 SW 6 9 3 5 1016.5 1016.5 0.2
30/04:30pm 16.6 14.8 9.5 63 3.7 SW 9 13 5 7 1016.3 1016.3 0.2
30/04:00pm 16.8 15.3 10.6 67 3.3 WSW 9 13 5 7 1016.2 1016.2 0.2
30/03:30pm 17.0 15.9 10.6 66 3.4 WSW 7 11 4 6 1016.0 1016.0 0.2
30/03:00pm 16.9 15.2 9.8 63 3.7 SW 9 13 5 7 1015.7 1015.7 0.2
30/02:30pm 17.1 16.0 10.0 63 3.7 SSW 6 9 3 5 1015.6 1015.6 0.2
30/02:00pm 16.8 15.6 10.2 65 3.5 S 7 13 4 7 1015.6 1015.6 0.2
30/01:30pm 16.9 16.0 10.5 66 3.4 SW 6 13 3 7 1015.7 1015.7 0.2
30/01:00pm 16.9 16.0 11.2 69 3.1 SSE 7 13 4 7 1015.8 1015.8 0.2
30/12:30pm 16.6 15.0 11.7 73 2.7 S 11 17 6 9 1015.8 1015.8 0.2
30/12:00pm 15.6 13.9 12.5 82 1.7 S 13 20 7 11 1016.3 1016.3 0.2
30/11:30am 16.4 15.0 12.2 76 2.3 SSE 11 15 6 8 1016.0 1016.0 0.0
30/11:00am 16.1 14.9 12.8 81 1.8 SSE 11 17 6 9 1016.4 1016.4 0.0
30/10:30am 15.5 14.4 13.2 86 1.3 SSE 11 15 6 8 1016.2 1016.2 0.0
30/10:00am 15.6 15.2 14.0 90 0.9 SSE 9 15 5 8 1016.3 1016.3 0.0
30/09:30am 15.5 14.8 14.4 93 0.6 SSE 11 17 6 9 1016.1 1016.1 0.0
30/09:00am 15.2 14.5 14.4 95 0.5 SE 11 15 6 8 1016.0 1016.0 26.0
30/08:30am 15.2 15.0 14.7 97 0.3 SSE 9 17 5 9 1015.7 1015.7 26.0
30/08:00am 15.1 14.6 14.9 99 0.1 S 11 19 6 10 1015.3 1015.3 26.0
30/07:30am 15.0 14.9 15.0 100 0.0 S 9 15 5 8 1015.1 1015.1 26.0
30/07:00am 14.9 14.0 14.9 100 0.0 S 13 20 7 11 1014.4 1014.4 26.0
30/06:30am 15.4 14.7 15.4 100 0.0 S 13 20 7 11 1013.8 1013.8 25.8
30/06:00am 15.4 15.1 15.4 100 0.0 SSW 11 22 6 12 1013.4 1013.4 25.8
30/05:30am 15.4 15.1 15.4 100 0.0 SSW 11 17 6 9 1013.2 1013.2 25.6
30/05:00am 15.3 15.3 15.3 100 0.0 SSW 9 13 5 7 1012.8 1012.8 25.6
30/04:30am 15.4 15.1 15.4 100 0.0 SSW 11 15 6 8 1012.7 1012.7 25.6
30/04:00am 15.3 14.2 15.3 100 0.0 SSW 15 24 8 13 1012.5 1012.5 25.2
30/03:30am 16.5 14.9 16.5 100 0.0 WSW 20 30 11 16 1012.2 1012.2 25.2
30/03:00am 16.1 15.3 16.1 100 0.0 WNW 15 20 8 11 1012.3 1012.3 24.8
30/02:30am 16.3 15.6 16.3 100 0.0 NW 15 19 8 10 1012.4 1012.4 23.8
30/02:00am 16.3 15.2 16.3 100 0.0 NNW 17 20 9 11 1012.5 1012.5 22.6
30/01:30am 16.4 14.4 16.4 100 0.0 NW 22 24 12 13 1012.7 1012.7 21.4
30/01:00am 16.6 14.2 16.4 99 0.1 NW 24 26 13 14 1012.9 1012.9 20.2
30/12:30am 16.4 13.9 16.1 98 0.2 NW 24 30 13 16 1012.5 1012.5 19.2
30/12:00am 16.1 14.0 16.1 100 0.0 NW 22 28 12 15 1012.5 1012.5 19.0
 
Date/Time
WST
Temp
°C
App
Temp
°C
Dew
Point
Rel
Hum
%
Delta-T
°C
Wind Press
QNH
hPa
Press
MSL
hPa
Rain
since 9 am
mm
Dir
 
Spd
km/h
Gust
km/h
Spd
kts
Gust
kts
29/11:30pm 16.2 14.1 16.2 100 0.0 NW 22 28 12 15 1012.8 1012.8 19.0
29/11:00pm 15.8 12.3 15.6 99 0.1 NW 28 35 15 19 1013.3 1013.3 17.6
29/10:30pm 15.9 12.8 15.7 99 0.1 NW 26 33 14 18 1013.2 1013.2 16.0
29/10:00pm 16.8 14.4 16.5 98 0.2 NW 24 30 13 16 1013.1 1013.1 14.6
29/09:30pm 16.6 14.3 15.6 94 0.6 WNW 22 28 12 15 1013.6 1013.6 13.4
29/09:00pm 17.4 17.0 16.1 92 0.8 NW 13 19 7 10 1013.5 1013.5 13.0
29/08:30pm 17.0 15.7 14.8 87 1.3 WNW 15 19 8 10 1013.4 1013.4 12.8
29/08:00pm 16.3 15.2 15.3 94 0.6 W 15 24 8 13 1013.5 1013.5 12.6
29/07:30pm 16.9 15.5 16.6 98 0.2 W 19 30 10 16 1013.5 1013.5 12.0
29/07:00pm 17.1 16.1 16.6 97 0.3 W 17 20 9 11 1012.8 1012.8 11.2
29/06:30pm 17.4 14.8 15.9 91 0.9 WNW 24 35 13 19 1013.1 1013.1 10.4
29/06:00pm 18.3 16.6 16.3 88 1.2 WNW 20 26 11 14 1012.1 1012.1 9.8
29/05:30pm 18.1 16.3 15.5 85 1.5 W 19 24 10 13 1012.1 1012.1 9.8
29/05:00pm 18.2 15.6 16.0 87 1.3 WNW 24 32 13 17 1012.4 1012.4 9.8
29/04:30pm 18.0 15.4 15.8 87 1.3 WNW 24 32 13 17 1012.4 1012.4 9.8
29/04:00pm 18.1 14.8 16.1 88 1.2 WNW 28 35 15 19 1012.2 1012.2 9.8
29/03:30pm 18.1 15.1 15.9 87 1.3 WNW 26 33 14 18 1011.9 1011.9 9.8
29/03:00pm 18.2 16.2 16.5 90 1.0 WNW 22 28 12 15 1012.0 1012.0 9.8
29/02:30pm 18.3 16.2 16.1 87 1.3 WNW 22 30 12 16 1012.1 1012.1 9.8
29/02:00pm 18.0 15.1 16.2 89 1.1 NW 26 32 14 17 1012.4 1012.4 9.8
29/01:30pm 18.0 16.3 17.2 95 0.5 NW 22 28 12 15 1012.0 1012.0 9.8
29/01:00pm 17.4 16.7 17.4 100 0.0 NNW 17 22 9 12 1012.1 1012.1 9.8
29/12:30pm 17.2 16.4 17.2 100 0.0 NW 17 20 9 11 1012.2 1012.2 9.8
29/12:00pm 16.3 14.8 16.3 100 0.0 NW 19 20 10 11 1012.4 1012.4 9.0
29/11:30am 16.3 14.8 16.3 100 0.0 WSW 19 28 10 15 1012.9 1012.9 6.8
29/11:00am 16.3 15.2 16.3 100 0.0 WSW 17 26 9 14 1012.5 1012.5 5.2
29/10:30am 16.6 15.0 16.6 100 0.0 WSW 20 33 11 18 1012.7 1012.7 4.8
29/10:00am 17.3 16.6 17.3 100 0.0 W 17 30 9 16 1012.5 1012.5 1.2
29/09:30am 17.8 16.3 17.8 100 0.0 WNW 22 28 12 15 1012.2 1012.2 0.0
29/09:00am 17.4 17.1 17.4 100 0.0 WNW 15 20 8 11 1012.4 1012.4 6.2
29/08:30am 17.4 14.3 17.4 100 0.0 NW 30 43 16 23 1012.2 1012.2 5.8
29/08:00am 17.7 15.1 17.7 100 0.0 W 28 39 15 21 1011.8 1011.8 3.2
29/07:30am 18.1 14.3 17.1 94 0.6 WNW 33 48 18 26 1011.6 1011.6 3.0
29/07:00am 18.0 14.4 17.7 98 0.2 WNW 33 44 18 24 1011.5 1011.5 3.0
29/06:30am 17.1 11.7 17.1 100 0.0 NW 41 54 22 29 1011.6 1011.6 3.0
29/06:13am 18.9 14.2 17.7 93 0.7 NW 39 61 21 33 1011.2 1011.2 0.8
29/06:00am 18.9 15.1 18.1 95 0.5 NNW 35 43 19 23 1011.0 1011.0 0.2
29/05:30am 19.2 15.1 17.3 89 1.2 NNW 35 43 19 23 1011.3 1011.3 0.0
29/05:00am 19.1 15.3 17.1 88 1.2 NNW 33 41 18 22 1011.3 1011.3 0.0
29/04:30am 19.0 15.1 17.0 88 1.2 NNW 33 46 18 25 1011.2 1011.2 0.0
29/04:00am 19.0 15.9 17.5 91 0.9 NNW 30 39 16 21 1011.3 1011.3 0.0
29/03:30am 19.1 16.0 17.4 90 1.0 NNW 30 37 16 20 1011.5 1011.5 0.0
29/03:00am 19.0 16.0 17.8 93 0.7 NNW 30 41 16 22 1011.9 1011.9 0.0
29/02:30am 19.0 16.2 18.2 95 0.5 NNW 30 35 16 19 1011.8 1011.8 0.0
29/02:00am 19.1 16.5 17.9 93 0.7 NNW 28 33 15 18 1012.3 1012.3 0.0
29/01:30am 19.1 16.2 17.9 93 0.7 NNW 30 37 16 20 1012.5 1012.5 0.0
29/01:00am 19.1 16.5 17.9 93 0.7 NNW 28 37 15 20 1012.7 1012.7 0.0
29/12:30am 19.0 16.8 17.8 93 0.7 NNW 26 32 14 17 1012.8 1012.8 0.0
29/12:00am 18.9 16.7 17.9 94 0.6 NNW 26 33 14 18 1013.0 1013.0 0.0
 
Date/Time
WST
Temp
°C
App
Temp
°C
Dew
Point
Rel
Hum
%
Delta-T
°C
Wind Press
QNH
hPa
Press
MSL
hPa
Rain
since 9 am
mm
Dir
 
Spd
km/h
Gust
km/h
Spd
kts
Gust
kts
28/11:30pm 18.9 17.1 17.9 94 0.6 NNW 24 30 13 16 1013.3 1013.3 0.0
28/11:00pm 19.0 16.7 17.7 92 0.8 NW 26 32 14 17 1013.8 1013.8 0.0
28/10:30pm 19.0 17.1 17.7 92 0.8 NW 24 32 13 17 1014.0 1014.0 0.0
28/10:00pm 19.0 17.0 17.5 91 0.9 NNW 24 30 13 16 1014.0 1014.0 0.0
28/09:30pm 19.1 17.0 17.2 89 1.2 NNW 24 32 13 17 1014.4 1014.4 0.0
28/09:00pm 19.1 17.1 17.4 90 1.0 NNW 24 28 13 15 1014.5 1014.5 0.0
28/08:30pm 18.9 17.4 17.7 93 0.7 NNW 22 26 12 14 1014.6 1014.6 0.0
28/08:00pm 19.0 17.5 17.8 93 0.7 NNW 22 26 12 14 1014.5 1014.5 0.0
28/07:30pm 19.0 17.6 18.0 94 0.6 NNW 22 28 12 15 1014.4 1014.4 0.0
28/07:00pm 19.0 17.9 18.7 98 0.2 NNW 22 26 12 14 1014.3 1014.3 0.0
28/06:30pm 19.0 18.1 19.0 100 0.0 NNW 22 26 12 14 1014.2 1014.2 0.0
28/06:00pm 19.1 18.6 19.1 100 0.0 NNW 20 24 11 13 1014.2 1014.2 0.0
28/05:30pm 19.2 18.8 19.0 99 0.1 NNW 19 22 10 12 1014.1 1014.1 0.0
28/05:00pm 19.4 18.7 18.6 95 0.5 NNW 20 24 11 13 1013.8 1013.8 0.0
28/04:30pm 19.4 18.5 18.1 92 0.8 NNW 20 24 11 13 1013.8 1013.8 0.0
28/04:00pm 19.3 17.8 17.6 90 1.0 NNW 22 26 12 14 1013.5 1013.5 0.0
28/03:30pm 19.8 17.3 17.0 84 1.7 NNW 26 30 14 16 1013.8 1013.8 0.0
28/03:00pm 20.0 17.6 16.4 80 2.2 NNW 24 30 13 16 1013.8 1013.8 0.0
28/02:30pm 20.0 17.2 15.4 75 2.7 NNW 24 28 13 15 1014.3 1014.3 0.0
28/02:00pm 19.4 18.7 17.4 88 1.2 N 17 19 9 10 1014.4 1014.4 0.0
28/01:30pm 19.7 18.4 16.7 83 1.8 N 19 22 10 12 1014.5 1014.5 0.0
28/01:00pm 19.1 17.0 16.1 83 1.8 N 22 26 12 14 1014.7 1014.7 0.0
28/12:30pm 19.2 17.1 16.1 82 1.8 N 22 26 12 14 1014.9 1014.9 0.0

Other Formats:

Comma delimited format used in spreadsheet applications
http://www.bom.gov.au/fwo/IDW60801/IDW60801.94605.axf

JavaScript Object Notation format (JSON) in row-major order
http://www.bom.gov.au/fwo/IDW60801/IDW60801.94605.json